CLT TRACON Summary / KCLT TAF
CLT TRACON Summary:
LIFR conditions are expected through at least 13z with gradual improvement thereafter through 15z. Surface winds will be south to southwest at 3-7 kts then increasing to 9-14kts with 20-25kt gusts by 18z. Flight Hazards in the TRACON airspace: LLWS is expected through 16z. Light to Mod Turbulence below 120 expected through the period.

Updated:3/4/2015 6:39 AM
CLT Terminal Aerodrome Forecast:

FTUS42 KGSP 041615 AAD
TAFCLT
TAF AMD
KCLT 041615Z 0416/0512 22013G18KT P6SM BKN002 OVC007
     FM041700 21013G20KT P6SM OVC007
     FM041800 22014G22KT P6SM BKN015
     FM041900 22015G25KT P6SM BKN035
     FM050800 19008KT P6SM BKN017=
CLT TRACON Area Remark:
None.
Convective Gate Forecast / Icing Gate Forecast / Vertical Wind Profile (click on image to enlarge)
Convective Gate Forecast
Icing Gate Forecast

table with gate forecasts (convective/ CCFP) used April - November

SIGMETS/ Southeast Radar & Satellite Loops (click on image to enlarge)

Southeast Radar Loop

 



USA.gov is the U.S. government's official web portal to all federal, state and local government web resources and services.